Allison, Illinois
Current Conditions -  °F | °C
As of 3:53 PM on Friday 28 Nov 2014 (Local Time) from KLWV Reporting Station
Clear Clear  
Wind Chill: 31°   Ceiling: Unl
Heat Index: 39°   Visibility: 8mi
Dew Point: 30°   Wind: 15mph
Humidity: 70%   Direction: 170°S
Pressure: 30.1"   Gusts: NA
Location:  38.7501°N, 87.6141°W
Report Text: KLWV 282153Z AUTO 17013KT 8SM CLR 04/M01 A3010 RMK AO2 SLP197 T00391011
Loading
Personal Weather Stations






























Interactive Weather Map New forecast layout! Learn more

10-Day Weather Forecast

Advertisements
Track Severe Weather on mobile